createdAt,value
2022-10-15T00:01:26.288Z,12.48
2022-10-15T00:03:53.759Z,12.48
2022-10-15T00:06:21.668Z,12.45
2022-10-15T00:08:49.035Z,12.47
2022-10-15T00:11:21.828Z,12.48
2022-10-15T00:13:50.898Z,12.37
2022-10-15T00:16:21.604Z,12.41
2022-10-15T00:18:49.561Z,12.37
2022-10-15T00:21:19.225Z,12.40
2022-10-15T00:23:47.864Z,12.39
2022-10-15T00:26:18.857Z,12.27
2022-10-15T00:28:46.685Z,12.32
2022-10-15T00:31:14.664Z,12.31
2022-10-15T00:33:42.713Z,12.29
2022-10-15T00:36:17.065Z,12.30
2022-10-15T00:38:44.639Z,12.23
2022-10-15T00:41:18.588Z,12.28
2022-10-15T00:43:45.920Z,12.27
2022-10-15T00:46:37.705Z,12.24
2022-10-15T00:49:20.093Z,12.20
2022-10-15T00:51:53.131Z,12.15
2022-10-15T00:54:21.527Z,12.15
2022-10-15T00:56:50.401Z,12.20
2022-10-15T00:59:20.060Z,12.15
2022-10-15T01:01:47.539Z,12.19
2022-10-15T01:04:15.308Z,12.14
2022-10-15T01:06:42.561Z,12.09
2022-10-15T01:09:10.025Z,12.02
2022-10-15T01:12:00.117Z,12.04
2022-10-15T01:14:42.582Z,12.05
2022-10-15T01:17:33.048Z,12.05
2022-10-15T01:20:45.756Z,12.06
2022-10-15T01:23:15.277Z,12.08
2022-10-15T01:26:17.683Z,12.08
2022-10-15T01:29:06.439Z,12.05
2022-10-15T01:31:52.945Z,12.04
2022-10-15T01:34:57.316Z,11.94
2022-10-15T01:37:42.274Z,11.92
2022-10-15T01:40:20.284Z,11.87
2022-10-15T01:43:00.195Z,11.86
2022-10-15T01:45:48.423Z,11.77
2022-10-15T01:48:26.148Z,11.70
2022-10-15T01:51:02.283Z,11.80
2022-10-15T01:53:30.726Z,11.87
2022-10-15T01:56:06.307Z,11.87
2022-10-15T01:58:38.272Z,11.82
2022-10-15T02:01:05.753Z,11.83
2022-10-15T02:04:17.777Z,11.91
2022-10-15T02:06:53.795Z,11.98
2022-10-15T02:09:38.220Z,11.86
2022-10-15T02:12:11.570Z,11.90
2022-10-15T02:14:52.694Z,11.94
2022-10-15T02:17:30.183Z,11.92
2022-10-15T02:20:23.042Z,11.97
2022-10-15T02:23:02.299Z,11.89
2022-10-15T02:25:30.371Z,11.88
2022-10-15T02:28:00.527Z,11.82
2022-10-15T02:30:29.897Z,11.84
2022-10-15T02:32:59.597Z,11.82
2022-10-15T02:35:28.387Z,11.82
2022-10-15T02:38:01.590Z,11.82
2022-10-15T02:40:32.925Z,11.80
2022-10-15T02:43:00.412Z,11.75
2022-10-15T02:45:28.374Z,11.83
2022-10-15T02:47:55.721Z,11.92
2022-10-15T02:50:24.800Z,11.84
2022-10-15T02:52:53.107Z,11.90
2022-10-15T02:55:20.461Z,11.90
2022-10-15T02:57:47.806Z,11.88
2022-10-15T03:00:18.996Z,11.86
2022-10-15T03:02:49.461Z,11.93
2022-10-15T03:05:38.502Z,11.81
2022-10-15T03:08:06.090Z,11.83
2022-10-15T03:10:33.867Z,11.78
2022-10-15T03:13:05.317Z,11.79
2022-10-15T03:15:37.328Z,11.73
2022-10-15T03:18:06.045Z,11.93
2022-10-15T03:20:35.863Z,11.81
2022-10-15T03:23:03.372Z,11.84
2022-10-15T03:25:32.803Z,11.81
2022-10-15T03:28:03.450Z,11.87
2022-10-15T03:30:40.658Z,11.86
2022-10-15T03:33:08.298Z,11.80
2022-10-15T03:35:36.917Z,11.82
2022-10-15T03:38:05.878Z,11.76
2022-10-15T03:40:33.825Z,11.79
2022-10-15T03:43:13.704Z,11.77
2022-10-15T03:45:41.003Z,11.79
2022-10-15T03:48:17.430Z,11.75
2022-10-15T03:50:46.065Z,11.75
2022-10-15T03:53:14.109Z,11.79
2022-10-15T03:55:41.471Z,11.73
2022-10-15T03:58:09.142Z,11.83
2022-10-15T04:00:44.577Z,11.78
2022-10-15T04:03:12.053Z,11.76
2022-10-15T04:05:40.226Z,11.80
2022-10-15T04:08:10.509Z,11.80
2022-10-15T04:10:41.544Z,11.82
2022-10-15T04:13:08.867Z,11.87
2022-10-15T04:15:39.643Z,11.89
2022-10-15T04:18:10.342Z,11.83
2022-10-15T04:20:38.533Z,11.81
2022-10-15T04:23:12.584Z,11.90
2022-10-15T04:25:43.785Z,11.89
2022-10-15T04:28:11.697Z,11.89
2022-10-15T04:30:39.993Z,11.87
2022-10-15T04:33:10.435Z,11.87
2022-10-15T04:35:37.805Z,11.81
2022-10-15T04:38:09.039Z,11.77
2022-10-15T04:41:16.557Z,11.87
2022-10-15T04:44:10.361Z,11.85
2022-10-15T04:46:39.287Z,11.84
2022-10-15T04:49:32.253Z,11.75
2022-10-15T04:52:01.798Z,11.75
2022-10-15T04:54:33.991Z,11.67
2022-10-15T04:57:05.911Z,11.60
2022-10-15T04:59:33.485Z,11.61
2022-10-15T05:02:20.171Z,11.64
2022-10-15T05:04:53.710Z,11.74
2022-10-15T05:07:21.499Z,11.72
2022-10-15T05:09:50.138Z,11.76
2022-10-15T05:12:18.573Z,11.65
2022-10-15T05:14:46.543Z,11.65
2022-10-15T05:17:23.395Z,11.65
2022-10-15T05:19:50.882Z,11.55
2022-10-15T05:22:23.181Z,11.53
2022-10-15T05:24:54.220Z,11.48
2022-10-15T05:27:41.589Z,11.53
2022-10-15T05:30:09.536Z,11.53
2022-10-15T05:32:51.414Z,11.49
2022-10-15T05:35:19.377Z,11.49
2022-10-15T05:37:53.352Z,11.45
2022-10-15T05:40:22.055Z,11.48
2022-10-15T05:43:04.912Z,11.51
2022-10-15T05:45:32.508Z,11.47
2022-10-15T05:48:05.111Z,11.47
2022-10-15T05:50:32.805Z,11.51
2022-10-15T05:53:02.374Z,11.57
2022-10-15T05:55:40.423Z,11.49
2022-10-15T05:58:07.761Z,11.50
2022-10-15T06:00:36.277Z,11.44
2022-10-15T06:03:03.838Z,11.43
2022-10-15T06:05:32.469Z,11.46
2022-10-15T06:07:59.914Z,11.52
2022-10-15T06:10:28.628Z,11.57
2022-10-15T06:12:55.955Z,11.61
2022-10-15T06:15:23.251Z,11.56
2022-10-15T06:17:53.785Z,11.55
2022-10-15T06:20:21.285Z,11.62
2022-10-15T06:22:48.587Z,11.59
2022-10-15T06:25:15.997Z,11.59
2022-10-15T06:27:43.203Z,11.55
2022-10-15T06:30:10.774Z,11.61
2022-10-15T06:32:38.025Z,11.64
2022-10-15T06:35:05.801Z,11.64
2022-10-15T06:37:34.544Z,11.68
2022-10-15T06:40:01.818Z,11.78
2022-10-15T06:42:29.686Z,11.71
2022-10-15T06:44:57.912Z,11.73
2022-10-15T06:47:25.614Z,11.80
2022-10-15T06:49:52.969Z,11.93
2022-10-15T06:52:20.897Z,11.93
2022-10-15T06:54:48.209Z,11.93
2022-10-15T06:57:15.519Z,12.00
2022-10-15T06:59:43.032Z,12.06
2022-10-15T07:02:11.300Z,11.99
2022-10-15T07:04:38.790Z,11.93
2022-10-15T07:07:06.481Z,11.99
2022-10-15T07:09:36.910Z,11.91
2022-10-15T07:12:05.631Z,11.87
2022-10-15T07:14:33.074Z,11.99
2022-10-15T07:17:00.329Z,12.01
2022-10-15T07:19:29.207Z,12.04
2022-10-15T07:21:56.898Z,12.08
2022-10-15T07:24:24.256Z,12.19
2022-10-15T07:26:51.686Z,12.17
2022-10-15T07:29:19.936Z,12.29
2022-10-15T07:31:48.574Z,12.38
2022-10-15T07:34:17.161Z,12.43
2022-10-15T07:36:44.513Z,12.51
2022-10-15T07:39:12.134Z,12.58
2022-10-15T07:41:39.568Z,12.65
2022-10-15T07:44:06.872Z,12.64
2022-10-15T07:46:34.215Z,12.79
2022-10-15T07:49:01.600Z,12.79
2022-10-15T07:51:30.227Z,12.79
2022-10-15T07:53:57.727Z,12.93
2022-10-15T07:56:24.936Z,12.99
2022-10-15T07:58:52.274Z,13.06
2022-10-15T08:01:21.337Z,13.03
2022-10-15T08:03:49.043Z,13.00
2022-10-15T08:06:17.015Z,13.06
2022-10-15T08:08:44.264Z,13.00
2022-10-15T08:11:14.129Z,13.04
2022-10-15T08:13:42.910Z,13.03
2022-10-15T08:16:12.510Z,13.11
2022-10-15T08:18:40.366Z,13.11
2022-10-15T08:21:08.806Z,13.21
2022-10-15T08:23:36.684Z,13.26
2022-10-15T08:26:04.200Z,13.30
2022-10-15T08:28:32.998Z,13.35
2022-10-15T08:31:05.236Z,13.49
2022-10-15T08:33:38.425Z,13.56
2022-10-15T08:36:07.199Z,13.51
2022-10-15T08:38:35.264Z,13.70
2022-10-15T08:41:06.227Z,13.67
2022-10-15T08:43:43.231Z,13.56
2022-10-15T08:46:26.342Z,13.58
2022-10-15T08:48:56.436Z,13.61
2022-10-15T08:51:28.478Z,13.73
2022-10-15T08:54:00.030Z,13.66
2022-10-15T08:56:32.970Z,13.77
2022-10-15T08:59:53.266Z,13.71
2022-10-15T09:02:31.654Z,13.60
2022-10-15T09:05:16.364Z,13.45
2022-10-15T09:07:54.500Z,13.41
2022-10-15T09:10:28.192Z,13.43
2022-10-15T09:13:03.075Z,13.40
2022-10-15T09:15:37.718Z,13.67
2022-10-15T09:18:06.232Z,13.66
2022-10-15T09:20:36.882Z,13.77
2022-10-15T09:23:11.909Z,13.75
2022-10-15T09:25:42.193Z,13.74
2022-10-15T09:28:14.690Z,13.73
2022-10-15T09:30:56.126Z,13.77
2022-10-15T09:33:42.003Z,13.71
2022-10-15T09:36:15.431Z,13.77
2022-10-15T09:39:00.993Z,13.73
2022-10-15T09:41:49.484Z,13.74
2022-10-15T09:44:21.043Z,13.73
2022-10-15T09:46:51.574Z,13.72
2022-10-15T09:49:26.051Z,13.83
2022-10-15T09:52:11.207Z,13.90
2022-10-15T09:54:45.269Z,13.92
2022-10-15T09:57:15.468Z,14.00
2022-10-15T09:59:56.802Z,14.11
2022-10-15T10:02:26.320Z,14.14
2022-10-15T10:04:54.487Z,14.18
2022-10-15T10:07:27.827Z,14.26
2022-10-15T10:09:58.183Z,14.15
2022-10-15T10:12:35.291Z,14.16
2022-10-15T10:15:31.090Z,14.13
2022-10-15T10:17:59.210Z,14.15
2022-10-15T10:20:29.075Z,14.17
2022-10-15T10:23:01.748Z,14.17
2022-10-15T10:25:39.322Z,14.28
2022-10-15T10:28:10.089Z,14.46
2022-10-15T10:30:43.377Z,14.45
2022-10-15T10:33:14.852Z,14.47
2022-10-15T10:35:47.580Z,14.38
2022-10-15T10:38:20.975Z,14.31
2022-10-15T10:41:05.284Z,14.29
2022-10-15T10:43:39.067Z,14.25
2022-10-15T10:46:14.695Z,14.33
2022-10-15T10:48:49.958Z,14.29
2022-10-15T10:51:20.751Z,14.24
2022-10-15T10:54:06.835Z,14.26
2022-10-15T10:56:45.119Z,14.33
2022-10-15T10:59:21.021Z,14.43
2022-10-15T11:01:50.929Z,14.59
2022-10-15T11:04:26.467Z,14.63
2022-10-15T11:07:06.162Z,14.63
2022-10-15T11:09:56.093Z,14.73
2022-10-15T11:12:23.679Z,14.81
2022-10-15T11:15:00.165Z,14.79
2022-10-15T11:17:48.111Z,14.79
2022-10-15T11:20:48.555Z,14.83
2022-10-15T11:23:38.803Z,14.86
2022-10-15T11:26:11.863Z,15.06
2022-10-15T11:29:00.400Z,15.10
2022-10-15T11:32:02.874Z,15.11
2022-10-15T11:34:58.745Z,15.21
2022-10-15T11:37:51.999Z,15.45
2022-10-15T11:40:48.495Z,15.48
2022-10-15T11:43:25.393Z,15.54
2022-10-15T11:45:59.259Z,15.71
2022-10-15T11:48:26.553Z,15.80
2022-10-15T11:51:14.295Z,15.93
2022-10-15T11:54:05.075Z,15.95
2022-10-15T11:56:38.920Z,16.12
2022-10-15T11:59:44.331Z,16.22
2022-10-15T12:02:23.877Z,16.24
2022-10-15T12:04:59.295Z,16.22
2022-10-15T12:07:42.184Z,16.25
2022-10-15T12:10:31.262Z,16.17
2022-10-15T12:13:22.681Z,16.25
2022-10-15T12:15:55.951Z,16.36
2022-10-15T12:18:36.127Z,16.29
2022-10-15T12:21:03.837Z,16.22
2022-10-15T12:23:37.197Z,16.25
2022-10-15T12:26:25.747Z,16.23
2022-10-15T12:28:56.579Z,16.09
2022-10-15T12:31:27.118Z,16.12
2022-10-15T12:33:57.079Z,16.10
2022-10-15T12:36:29.550Z,16.16
2022-10-15T12:39:27.766Z,16.19
2022-10-15T12:42:02.288Z,16.15
2022-10-15T12:44:32.688Z,16.08
2022-10-15T12:47:00.672Z,16.11
2022-10-15T12:49:27.971Z,16.12
2022-10-15T12:51:56.607Z,16.09
2022-10-15T12:54:48.074Z,16.04
2022-10-15T12:57:38.787Z,15.98
2022-10-15T13:00:36.545Z,16.06
2022-10-15T13:03:23.475Z,16.05
2022-10-15T13:05:54.058Z,16.08
2022-10-15T13:08:34.406Z,16.05
2022-10-15T13:11:01.742Z,16.06
2022-10-15T13:13:32.407Z,16.32
2022-10-15T13:16:02.582Z,16.58
2022-10-15T13:18:31.738Z,16.71
2022-10-15T13:23:32.710Z,17.14
2022-10-15T13:26:21.423Z,17.26
2022-10-15T13:28:51.197Z,17.29
2022-10-15T13:31:27.475Z,17.33
2022-10-15T13:34:14.130Z,17.37
2022-10-15T13:36:41.660Z,17.48
2022-10-15T13:39:23.803Z,17.45
2022-10-15T13:41:51.554Z,17.60
2022-10-15T13:44:22.509Z,17.84
2022-10-15T13:46:50.145Z,17.85
2022-10-15T13:49:25.333Z,17.81
2022-10-15T13:52:05.676Z,17.89
2022-10-15T13:54:33.339Z,17.78
2022-10-15T13:57:02.159Z,17.87
2022-10-15T13:59:31.582Z,17.85
2022-10-15T14:02:01.911Z,17.83
2022-10-15T14:04:31.278Z,17.85
2022-10-15T14:07:19.217Z,17.82
2022-10-15T14:09:47.559Z,17.80
2022-10-15T14:12:15.178Z,18.04
2022-10-15T14:14:46.937Z,18.23
2022-10-15T14:17:17.617Z,18.29
2022-10-15T14:20:22.166Z,18.22
2022-10-15T14:22:49.191Z,18.04
2022-10-15T14:25:22.919Z,17.92
2022-10-15T14:27:50.810Z,17.66
2022-10-15T14:30:32.356Z,17.56
2022-10-15T14:32:59.794Z,17.68
2022-10-15T14:35:35.419Z,17.84
2022-10-15T14:38:25.493Z,17.84
2022-10-15T14:41:07.905Z,17.99
2022-10-15T14:43:37.173Z,18.02
2022-10-15T14:46:07.397Z,18.02
2022-10-15T14:48:37.526Z,17.84
2022-10-15T14:51:17.320Z,17.77
2022-10-15T14:53:46.756Z,17.77
2022-10-15T14:56:28.470Z,17.76
2022-10-15T14:58:57.437Z,17.66
2022-10-15T15:01:27.573Z,17.69
2022-10-15T15:03:56.087Z,17.56
2022-10-15T15:06:23.566Z,17.50
2022-10-15T15:08:51.094Z,17.36
2022-10-15T15:11:22.918Z,17.30
2022-10-15T15:13:51.656Z,17.24
2022-10-15T15:16:19.839Z,17.18
2022-10-15T15:18:54.776Z,17.16
2022-10-15T15:21:23.994Z,17.32
2022-10-15T15:23:51.733Z,17.22
2022-10-15T15:26:19.809Z,17.31
2022-10-15T15:28:47.951Z,17.23
2022-10-15T15:31:17.910Z,17.24
2022-10-15T15:33:45.683Z,17.09
2022-10-15T15:36:19.097Z,16.98
2022-10-15T15:38:51.266Z,16.90
2022-10-15T15:41:23.995Z,16.88
2022-10-15T15:43:52.467Z,16.88
2022-10-15T15:46:19.706Z,16.81
2022-10-15T15:48:47.091Z,16.76
2022-10-15T15:51:25.698Z,16.60
2022-10-15T15:53:53.225Z,16.68
2022-10-15T15:56:20.596Z,16.47
2022-10-15T15:58:50.246Z,16.29
2022-10-15T16:01:18.844Z,16.19
2022-10-15T16:03:46.989Z,16.13
2022-10-15T16:06:14.639Z,16.28
2022-10-15T16:08:42.336Z,16.15
2022-10-15T16:11:09.854Z,16.28
2022-10-15T16:13:37.722Z,16.24
2022-10-15T16:16:05.221Z,16.28
2022-10-15T16:18:37.325Z,16.25
2022-10-15T16:21:05.151Z,16.29
2022-10-15T16:23:32.364Z,16.33
2022-10-15T16:25:59.455Z,16.25
2022-10-15T16:28:26.830Z,16.30
2022-10-15T16:30:54.182Z,16.28
2022-10-15T16:33:21.604Z,16.21
2022-10-15T16:35:53.606Z,16.17
2022-10-15T16:38:20.954Z,16.18
2022-10-15T16:40:48.499Z,16.27
2022-10-15T16:43:15.826Z,16.31
2022-10-15T16:45:43.366Z,16.24
2022-10-15T16:48:11.662Z,16.22
2022-10-15T16:50:38.881Z,16.23
2022-10-15T16:53:06.203Z,16.20
2022-10-15T16:55:33.488Z,16.10
2022-10-15T16:58:01.046Z,16.07
2022-10-15T17:00:28.366Z,15.95
2022-10-15T17:02:55.717Z,15.99
2022-10-15T17:05:38.787Z,16.01
2022-10-15T17:08:06.305Z,16.00
2022-10-15T17:10:34.563Z,16.00
2022-10-15T17:13:02.411Z,15.98
2022-10-15T17:15:32.574Z,15.82
2022-10-15T17:18:01.503Z,15.77
2022-10-15T17:20:28.907Z,15.70
2022-10-15T17:22:58.148Z,15.57
2022-10-15T17:25:26.374Z,15.54
2022-10-15T17:27:56.063Z,15.55
2022-10-15T17:30:23.785Z,15.64
2022-10-15T17:32:51.572Z,15.60
2022-10-15T17:35:19.997Z,15.53
2022-10-15T17:37:48.970Z,15.53
2022-10-15T17:40:29.505Z,15.45
2022-10-15T17:42:57.550Z,15.53
2022-10-15T17:45:25.240Z,15.26
2022-10-15T17:47:52.687Z,15.16
2022-10-15T17:50:20.278Z,15.05
2022-10-15T17:52:47.763Z,15.03
2022-10-15T17:55:16.872Z,14.88
2022-10-15T17:57:44.118Z,14.79
2022-10-15T18:00:12.293Z,14.69
2022-10-15T18:03:16.602Z,14.57
2022-10-15T18:05:46.532Z,14.47
2022-10-15T18:08:13.817Z,14.35
2022-10-15T18:10:41.026Z,14.30
2022-10-15T18:13:08.724Z,14.24
2022-10-15T18:15:38.684Z,14.32
2022-10-15T18:18:06.645Z,14.24
2022-10-15T18:20:33.976Z,14.31
2022-10-15T18:23:01.807Z,14.49
2022-10-15T18:25:33.449Z,14.67
2022-10-15T18:28:01.436Z,14.63
2022-10-15T18:30:28.974Z,14.77
2022-10-15T18:32:58.256Z,14.74
2022-10-15T18:35:28.155Z,14.59
2022-10-15T18:37:56.240Z,14.57
2022-10-15T18:40:24.457Z,14.57
2022-10-15T18:42:51.813Z,14.41
2022-10-15T18:45:23.036Z,14.33
2022-10-15T18:47:50.450Z,14.29
2022-10-15T18:50:18.325Z,14.41
2022-10-15T18:52:47.373Z,14.29
2022-10-15T18:55:17.890Z,14.12
2022-10-15T18:57:45.658Z,14.06
2022-10-15T19:00:14.309Z,14.06
2022-10-15T19:02:42.232Z,14.17
2022-10-15T19:05:09.620Z,14.12
2022-10-15T19:07:37.068Z,13.99
2022-10-15T19:10:19.178Z,13.95
2022-10-15T19:12:48.680Z,13.95
2022-10-15T19:15:16.086Z,13.90
2022-10-15T19:17:43.416Z,13.82
2022-10-15T19:20:10.989Z,13.75
2022-10-15T19:22:39.518Z,13.87
2022-10-15T19:25:07.290Z,13.83
2022-10-15T19:27:34.944Z,13.87
2022-10-15T19:30:02.262Z,13.68
2022-10-15T19:32:30.160Z,13.65
2022-10-15T19:34:57.641Z,13.72
2022-10-15T19:37:25.226Z,13.73
2022-10-15T19:39:52.793Z,13.77
2022-10-15T19:42:21.681Z,13.78
2022-10-15T19:44:50.545Z,13.77
2022-10-15T19:47:22.041Z,13.69
2022-10-15T19:49:50.692Z,13.75
2022-10-15T19:52:18.619Z,13.76
2022-10-15T19:54:51.955Z,13.67
2022-10-15T19:57:19.232Z,13.57
2022-10-15T19:59:46.606Z,13.49
2022-10-15T20:02:13.926Z,13.68
2022-10-15T20:04:41.252Z,13.69
2022-10-15T20:07:08.707Z,13.67
2022-10-15T20:09:40.349Z,13.65
2022-10-15T20:12:08.539Z,13.57
2022-10-15T20:14:36.085Z,13.64
2022-10-15T20:17:04.996Z,13.69
2022-10-15T20:19:32.455Z,13.72
2022-10-15T20:21:59.815Z,13.75
2022-10-15T20:24:27.380Z,13.72
2022-10-15T20:26:54.859Z,13.81
2022-10-15T20:29:24.566Z,13.78
2022-10-15T20:31:52.170Z,13.73
2022-10-15T20:34:19.473Z,13.74
2022-10-15T20:36:54.636Z,13.77
2022-10-15T20:39:23.351Z,13.80
2022-10-15T20:42:06.147Z,13.92
2022-10-15T20:44:33.404Z,13.92
2022-10-15T20:47:06.493Z,14.04
2022-10-15T20:49:38.334Z,14.13
2022-10-15T20:52:06.478Z,14.15
2022-10-15T20:54:34.351Z,14.09
2022-10-15T20:57:01.859Z,14.05
2022-10-15T20:59:30.442Z,14.02
2022-10-15T21:01:58.361Z,14.04
2022-10-15T21:04:26.019Z,14.04
2022-10-15T21:06:53.705Z,14.12
2022-10-15T21:09:21.174Z,14.17
2022-10-15T21:11:48.514Z,14.24
2022-10-15T21:14:15.779Z,14.18
2022-10-15T21:16:43.078Z,14.24
2022-10-15T21:19:10.288Z,14.18
2022-10-15T21:21:37.854Z,14.15
2022-10-15T21:24:05.460Z,14.14
2022-10-15T21:26:32.905Z,14.08
2022-10-15T21:29:00.681Z,13.97
2022-10-15T21:31:28.239Z,13.91
2022-10-15T21:33:56.142Z,13.75
2022-10-15T21:36:26.642Z,13.64
2022-10-15T21:38:55.521Z,13.53
2022-10-15T21:41:24.903Z,13.62
2022-10-15T21:43:53.124Z,13.60
2022-10-15T21:46:20.750Z,13.60
2022-10-15T21:48:48.525Z,13.67
2022-10-15T21:51:27.194Z,13.61
2022-10-15T21:53:55.720Z,13.60
2022-10-15T21:56:23.531Z,13.84
2022-10-15T21:58:52.095Z,13.88
2022-10-15T22:01:22.354Z,13.97
2022-10-15T22:03:54.209Z,13.96
2022-10-15T22:06:21.479Z,13.97
2022-10-15T22:08:49.017Z,13.82
2022-10-15T22:11:22.491Z,13.74
2022-10-15T22:13:53.527Z,13.80
2022-10-15T22:16:21.472Z,13.85
2022-10-15T22:18:49.100Z,13.92
2022-10-15T22:21:20.582Z,13.96
2022-10-15T22:23:51.135Z,13.95
2022-10-15T22:26:20.208Z,13.97
2022-10-15T22:28:47.946Z,14.09
2022-10-15T22:31:16.725Z,14.16
2022-10-15T22:33:45.307Z,14.12
2022-10-15T22:36:21.776Z,14.07
2022-10-15T22:38:53.506Z,14.00
2022-10-15T22:41:21.028Z,14.02
2022-10-15T22:43:48.357Z,13.99
2022-10-15T22:46:15.770Z,14.08
2022-10-15T22:48:43.486Z,14.06
2022-10-15T22:51:13.636Z,13.96
2022-10-15T22:53:41.645Z,13.97
2022-10-15T22:56:14.777Z,13.95
2022-10-15T22:58:42.316Z,13.86
2022-10-15T23:01:31.179Z,13.85
2022-10-15T23:04:01.981Z,13.89
2022-10-15T23:06:31.063Z,13.95
2022-10-15T23:08:59.418Z,13.91
2022-10-15T23:11:32.227Z,13.97
2022-10-15T23:14:03.485Z,14.00
2022-10-15T23:16:36.524Z,13.93
2022-10-15T23:19:14.054Z,13.93
2022-10-15T23:21:42.723Z,13.93
2022-10-15T23:24:10.718Z,13.91
2022-10-15T23:26:39.358Z,14.00
2022-10-15T23:29:08.673Z,14.08
2022-10-15T23:31:36.575Z,14.18
2022-10-15T23:34:04.607Z,14.25
2022-10-15T23:36:33.665Z,14.29
2022-10-15T23:39:04.545Z,14.48
2022-10-15T23:41:32.597Z,14.44
2022-10-15T23:44:00.414Z,14.38
2022-10-15T23:46:27.678Z,14.28
2022-10-15T23:48:55.026Z,14.23
2022-10-15T23:51:23.754Z,14.15
2022-10-15T23:53:51.637Z,14.13
2022-10-15T23:56:19.438Z,14.16
2022-10-15T23:58:50.218Z,14.21
